DucheSS Of Scandinavia — OUZI2 — position and weather

sailwx.info

Track history (hours):
 
Tides and Currents Weather Stations Pressure Air Temp Water Temp Dewpoint Dewpoint Depression Visibility Wind Speed Wind Dir Waves Ship Positions

DucheSS Of Scandinavia

Operator: DFDS A/S

Last reported at 2015-Apr-26 15:33 UTC. Time now 2015-Apr-26 15:41 UTC.
Position N 59°01' E 010°27'.

Length 134 m; draft 5.2 m.

Type: Passenger vessel. MMSI: 219002929.

Date/timePositionNaut miles runAvg speedWind from/ knotsBaromVisibWave heightAir tempDewpointWater temp
2015-Apr-26 15:33N 59°01' E 010°27'1615.8
2015-Apr-26 14:33N 59°00' E 010°57'8 7.9
2015-Apr-26 13:33N 58°56' E 011°10'1212.4
2015-Apr-26 12:34N 59°02' E 010°49'1616.0
2015-Apr-26 11:33N 59°01' E 010°18'1 0.4
2015-Apr-26 09:33N 59°01' E 010°19'1515.3
2015-Apr-26 08:33N 59°01' E 010°49'2 0.8
2015-Apr-26 06:26N 59°01' E 010°52'1415.9
2015-Apr-26 05:33N 59°01' E 010°25'0 0.0
2015-Apr-25 15:33N 59°01' E 010°25'1616.4
2015-Apr-25 14:33N 59°00' E 010°56'6 4.6
2015-Apr-25 13:13N 58°56' E 011°06'1015.8
2015-Apr-25 12:33N 59°02' E 010°48'1716.7
2015-Apr-25 11:33N 59°02' E 010°16'2 0.9
2015-Apr-25 09:33N 59°01' E 010°19'1515.4
2015-Apr-25 08:33N 59°02' E 010°49'1211.9
2015-Apr-25 07:33N 58°56' E 011°10'9 8.8
2015-Apr-25 06:33N 59°00' E 010°56'1616.2
2015-Apr-25 05:33N 59°01' E 010°24'9 8.7
2015-Apr-25 04:33N 59°08' E 010°14'1 1.4
2015-Apr-25 03:33N 59°06' E 010°14'0 0.0
2015-Apr-25 02:24N 59°06' E 010°14'0 0.0
2015-Apr-25 01:31N 59°06' E 010°14'0 0.0
2015-Apr-25 00:32N 59°06' E 010°14'0 0.0
2015-Apr-24 23:29N 59°06' E 010°14'0 0.0
2015-Apr-24 22:33N 59°06' E 010°14'0 0.0
2015-Apr-24 21:34N 59°06' E 010°14'0 0.0
2015-Apr-24 20:31N 59°06' E 010°14'0 0.0
2015-Apr-24 19:32N 59°06' E 010°14'0 0.0
2015-Apr-24 18:33N 59°06' E 010°14'0 0.0
2015-Apr-24 17:33N 59°06' E 010°14'1 1.4
2015-Apr-24 16:33N 59°08' E 010°14'9 9.3
2015-Apr-24 15:33N 59°01' E 010°26'1514.7
2015-Apr-24 14:34N 59°01' E 010°54'9 9.3
2015-Apr-24 13:34N 58°56' E 011°10'1111.4
2015-Apr-24 12:33N 59°01' E 010°51'1616.3
2015-Apr-24 11:33N 59°01' E 010°19'7 7.0
2015-Apr-24 10:33N 59°08' E 010°14'7 6.8
2015-Apr-24 09:33N 59°01' E 010°19'1615.8
2015-Apr-24 08:33N 59°02' E 010°50'1211.8
2015-Apr-24 07:33N 58°56' E 011°10'8 8.0
2015-Apr-24 06:34N 59°00' E 010°57'1616.2
2015-Apr-24 05:33N 59°01' E 010°26'9 9.2
2015-Apr-24 04:33N 59°08' E 010°14'1 1.4
2015-Apr-24 03:33N 59°06' E 010°14'0 0.0
2015-Apr-24 02:26N 59°06' E 010°14'0 0.0
2015-Apr-24 01:27N 59°06' E 010°14'0 0.0
2015-Apr-24 00:33N 59°06' E 010°14'0 0.0
2015-Apr-23 23:28N 59°06' E 010°14'0 0.0
2015-Apr-23 22:32N 59°06' E 010°14'0 0.0
2015-Apr-23 21:32N 59°06' E 010°14'0 0.0
2015-Apr-23 20:33N 59°06' E 010°14'0 0.0
2015-Apr-23 19:31N 59°06' E 010°14'0 0.0
2015-Apr-23 18:28N 59°06' E 010°14'0 0.0
2015-Apr-23 17:34N 59°06' E 010°14'1 1.4
2015-Apr-23 16:34N 59°08' E 010°14'1010.0
2015-Apr-23 15:33N 59°01' E 010°28'1515.0
2015-Apr-23 14:33N 59°00' E 010°57'8 7.9
2015-Apr-23 13:33N 58°56' E 011°10'1211.7
2015-Apr-23 12:33N 59°01' E 010°50'1616.5
2015-Apr-23 11:33N 59°01' E 010°18'7 6.7
2015-Apr-23 10:33N 59°08' E 010°14'7 6.6
2015-Apr-23 09:33N 59°01' E 010°19'1515.0
2015-Apr-23 08:34N 59°02' E 010°47'1313.0
2015-Apr-23 07:33N 58°56' E 011°10'8 7.5
2015-Apr-23 06:34N 58°60' E 010°58'1616.1
2015-Apr-23 05:33N 59°01' E 010°26'10 9.5
2015-Apr-23 04:33N 59°08' E 010°14'1 1.4
2015-Apr-23 03:34N 59°06' E 010°14'0 0.0
2015-Apr-23 02:33N 59°06' E 010°14'0 0.0
2015-Apr-23 01:33N 59°06' E 010°14'0 0.0
2015-Apr-23 00:31N 59°06' E 010°14'0 0.0
2015-Apr-22 23:32N 59°06' E 010°14'0 0.0
2015-Apr-22 22:32N 59°06' E 010°14'0 0.0
2015-Apr-22 21:24N 59°06' E 010°14'0 0.0
2015-Apr-22 20:31N 59°06' E 010°14'0 0.0
2015-Apr-22 19:31N 59°06' E 010°14'0 0.0
2015-Apr-22 18:32N 59°06' E 010°14'0 0.0
2015-Apr-22 17:33N 59°06' E 010°14'1 1.4
2015-Apr-22 16:33N 59°08' E 010°14'1010.4
2015-Apr-22 15:33N 59°01' E 010°29'1413.8
2015-Apr-22 14:33N 59°00' E 010°55'9 8.8
2015-Apr-22 13:33N 58°56' E 011°10'1211.7
2015-Apr-22 12:34N 59°01' E 010°50'1616.4
2015-Apr-22 11:34N 59°01' E 010°18'7 6.7
2015-Apr-22 10:33N 59°08' E 010°14'7 6.9
2015-Apr-22 09:33N 59°01' E 010°20'1514.9
2015-Apr-22 08:33N 59°01' E 010°48'1212.4
2015-Apr-22 07:33N 58°56' E 011°10'8 8.1
2015-Apr-22 06:33N 59°00' E 010°57'1616.4
2015-Apr-22 05:33N 59°01' E 010°25'9 9.0
2015-Apr-22 04:34N 59°08' E 010°14'1 1.4
2015-Apr-22 03:33N 59°06' E 010°14'0 0.0
2015-Apr-22 02:31N 59°06' E 010°14'0 0.0
2015-Apr-22 01:29N 59°06' E 010°14'0 0.0
2015-Apr-22 00:32N 59°06' E 010°14'0 0.0
2015-Apr-21 23:33N 59°06' E 010°14'0 0.0
2015-Apr-21 22:31N 59°06' E 010°14'0 0.0
2015-Apr-21 21:31N 59°06' E 010°14'0 0.0
2015-Apr-21 20:32N 59°06' E 010°14'0 0.0
2015-Apr-21 19:33N 59°06' E 010°14'0 0.0
2015-Apr-21 18:33N 59°06' E 010°14'0 0.0
2015-Apr-21 17:31N 59°06' E 010°14'1 1.5
2015-Apr-21 16:33N 59°08' E 010°14'9 9.0
2015-Apr-21 15:33N 59°01' E 010°26'1515.3
2015-Apr-21 14:33N 59°01' E 010°55'9 9.0
2015-Apr-21 13:33N 58°56' E 011°10'1211.6
2015-Apr-21 12:34N 59°01' E 010°50'1616.4
2015-Apr-21 11:33N 59°01' E 010°18'7 6.8
2015-Apr-21 10:33N 59°08' E 010°14'7 6.8
2015-Apr-21 09:33N 59°01' E 010°19'1515.3
2015-Apr-21 08:33N 59°01' E 010°49'1212.2
2015-Apr-21 07:33N 58°56' E 011°10'8 8.3
2015-Apr-21 06:33N 59°00' E 010°56'1616.2
2015-Apr-21 05:34N 59°01' E 010°25'9 9.0
2015-Apr-21 04:33N 59°08' E 010°14'1 1.4
2015-Apr-21 03:33N 59°06' E 010°14'0 0.0
2015-Apr-21 02:32N 59°06' E 010°14'0 0.0
2015-Apr-21 01:30N 59°06' E 010°14'0 0.0
2015-Apr-21 00:33N 59°06' E 010°14'0 0.0
2015-Apr-20 23:31N 59°06' E 010°14'0 0.0
2015-Apr-20 22:32N 59°06' E 010°14'0 0.0
2015-Apr-20 21:33N 59°06' E 010°14'0 0.0
2015-Apr-20 20:30N 59°06' E 010°14'0 0.0
2015-Apr-20 19:31N 59°06' E 010°14'0 0.0
2015-Apr-20 18:32N 59°06' E 010°14'0 0.0
2015-Apr-20 17:33N 59°06' E 010°14'1 1.4
2015-Apr-20 16:33N 59°08' E 010°14'1010.0
2015-Apr-20 15:33N 59°01' E 010°28'1414.3
2015-Apr-20 14:33N 59°00' E 010°56'9 8.6
2015-Apr-20 13:33N 58°56' E 011°10'1212.5
2015-Apr-20 12:34N 59°01' E 010°49'1716.6
2015-Apr-20 11:33N 59°02' E 010°16'6 6.0
2015-Apr-20 10:33N 59°08' E 010°14'7 6.9
2015-Apr-20 09:33N 59°01' E 010°20'1515.2
2015-Apr-20 08:33N 59°02' E 010°49'1212.2
2015-Apr-20 07:33N 58°56' E 011°10'8 8.2
2015-Apr-20 06:33N 59°00' E 010°56'1616.4
2015-Apr-20 05:33N 59°01' E 010°25'9 9.0
2015-Apr-20 04:33N 59°08' E 010°14'1 1.4
2015-Apr-20 03:33N 59°06' E 010°14'0 0.0
2015-Apr-20 02:33N 59°06' E 010°14'0 0.0
2015-Apr-20 01:30N 59°06' E 010°14'0 0.0
2015-Apr-20 00:28N 59°06' E 010°14'0 0.0
2015-Apr-19 23:32N 59°06' E 010°14'0 0.0
2015-Apr-19 22:32N 59°06' E 010°14'0 0.0
2015-Apr-19 21:33N 59°06' E 010°14'0 0.0
2015-Apr-19 20:31N 59°06' E 010°14'0 0.0
2015-Apr-19 19:31N 59°06' E 010°14'0 0.0
2015-Apr-19 17:24N 59°06' E 010°14'9 4.6
2015-Apr-19 15:32N 59°01' E 010°27'1616.1
2015-Apr-19 14:34N 58°60' E 010°57'8 6.5
2015-Apr-19 13:23N 58°56' E 011°10'1315.1
2015-Apr-19 12:33N 59°02' E 010°48'11 3.2
2015-Apr-19 09:16N 59°01' E 010°28'1115.0
2015-Apr-19 08:34N 59°01' E 010°48'13 9.9
2015-Apr-19 07:17N 58°56' E 011°10'1213.8
2015-Apr-19 06:24N 59°01' E 010°49'19 1.3
2015-Apr-18 16:12N 59°06' E 010°14'1012.8
2015-Apr-18 15:27N 59°01' E 010°29'1415.4
2015-Apr-18 14:34N 59°00' E 010°56'9 8.1
2015-Apr-18 13:29N 58°56' E 011°10'1212.8
2015-Apr-18 12:34N 59°01' E 010°50'10 3.0
2015-Apr-18 09:11N 59°01' E 010°30'1015.4
2015-Apr-18 08:33N 59°02' E 010°48'13 9.8
2015-Apr-18 07:17N 58°56' E 011°10'1112.4
2015-Apr-18 06:26N 59°01' E 010°52'11 0.7
2015-Apr-17 15:24N 59°01' E 010°31'1416.1
2015-Apr-17 14:33N 58°60' E 010°58'5 3.4
2015-Apr-17 13:08N 58°57' E 011°04'1016.6
2015-Apr-17 12:33N 59°02' E 010°48'11 3.2
2015-Apr-17 09:15N 59°01' E 010°28'1115.7
2015-Apr-17 08:33N 59°01' E 010°49'1 0.3
2015-Apr-17 06:21N 59°01' E 010°50'  
Track history (hours):
 
Tides and Currents Weather Stations Pressure Air Temp Water Temp Dewpoint Dewpoint Depression Visibility Wind Speed Wind Dir Waves Ship Positions

DucheSS Of Scandinavia

Operator: DFDS A/S

Last reported at 2015-Apr-26 15:33 UTC. Time now 2015-Apr-26 15:41 UTC.
Position N 59°01' E 010°27'.

Length 134 m; draft 5.2 m.

Type: Passenger vessel. MMSI: 219002929.

Date/timePositionNaut miles runAvg speedWind from/ knotsBaromVisibWave heightAir tempDewpointWater temp
2015-Apr-26 15:33N 59°01' E 010°27'1615.8
2015-Apr-26 14:33N 59°00' E 010°57'8 7.9
2015-Apr-26 13:33N 58°56' E 011°10'1212.4
2015-Apr-26 12:34N 59°02' E 010°49'1616.0
2015-Apr-26 11:33N 59°01' E 010°18'1 0.4
2015-Apr-26 09:33N 59°01' E 010°19'1515.3
2015-Apr-26 08:33N 59°01' E 010°49'2 0.8
2015-Apr-26 06:26N 59°01' E 010°52'1415.9
2015-Apr-26 05:33N 59°01' E 010°25'0 0.0
2015-Apr-25 15:33N 59°01' E 010°25'1616.4
2015-Apr-25 14:33N 59°00' E 010°56'6 4.6
2015-Apr-25 13:13N 58°56' E 011°06'1015.8
2015-Apr-25 12:33N 59°02' E 010°48'1716.7
2015-Apr-25 11:33N 59°02' E 010°16'2 0.9
2015-Apr-25 09:33N 59°01' E 010°19'1515.4
2015-Apr-25 08:33N 59°02' E 010°49'1211.9
2015-Apr-25 07:33N 58°56' E 011°10'9 8.8
2015-Apr-25 06:33N 59°00' E 010°56'1616.2
2015-Apr-25 05:33N 59°01' E 010°24'9 8.7
2015-Apr-25 04:33N 59°08' E 010°14'1 1.4
2015-Apr-25 03:33N 59°06' E 010°14'0 0.0
2015-Apr-25 02:24N 59°06' E 010°14'0 0.0
2015-Apr-25 01:31N 59°06' E 010°14'0 0.0
2015-Apr-25 00:32N 59°06' E 010°14'0 0.0
2015-Apr-24 23:29N 59°06' E 010°14'0 0.0
2015-Apr-24 22:33N 59°06' E 010°14'0 0.0
2015-Apr-24 21:34N 59°06' E 010°14'0 0.0
2015-Apr-24 20:31N 59°06' E 010°14'0 0.0
2015-Apr-24 19:32N 59°06' E 010°14'0 0.0
2015-Apr-24 18:33N 59°06' E 010°14'0 0.0
2015-Apr-24 17:33N 59°06' E 010°14'1 1.4
2015-Apr-24 16:33N 59°08' E 010°14'9 9.3
2015-Apr-24 15:33N 59°01' E 010°26'1514.7
2015-Apr-24 14:34N 59°01' E 010°54'9 9.3
2015-Apr-24 13:34N 58°56' E 011°10'1111.4
2015-Apr-24 12:33N 59°01' E 010°51'1616.3
2015-Apr-24 11:33N 59°01' E 010°19'7 7.0
2015-Apr-24 10:33N 59°08' E 010°14'7 6.8
2015-Apr-24 09:33N 59°01' E 010°19'1615.8
2015-Apr-24 08:33N 59°02' E 010°50'1211.8
2015-Apr-24 07:33N 58°56' E 011°10'8 8.0
2015-Apr-24 06:34N 59°00' E 010°57'1616.2
2015-Apr-24 05:33N 59°01' E 010°26'9 9.2
2015-Apr-24 04:33N 59°08' E 010°14'1 1.4
2015-Apr-24 03:33N 59°06' E 010°14'0 0.0
2015-Apr-24 02:26N 59°06' E 010°14'0 0.0
2015-Apr-24 01:27N 59°06' E 010°14'0 0.0
2015-Apr-24 00:33N 59°06' E 010°14'0 0.0
2015-Apr-23 23:28N 59°06' E 010°14'0 0.0
2015-Apr-23 22:32N 59°06' E 010°14'0 0.0
2015-Apr-23 21:32N 59°06' E 010°14'0 0.0
2015-Apr-23 20:33N 59°06' E 010°14'0 0.0
2015-Apr-23 19:31N 59°06' E 010°14'0 0.0
2015-Apr-23 18:28N 59°06' E 010°14'0 0.0
2015-Apr-23 17:34N 59°06' E 010°14'1 1.4
2015-Apr-23 16:34N 59°08' E 010°14'1010.0
2015-Apr-23 15:33N 59°01' E 010°28'1515.0
2015-Apr-23 14:33N 59°00' E 010°57'8 7.9
2015-Apr-23 13:33N 58°56' E 011°10'1211.7
2015-Apr-23 12:33N 59°01' E 010°50'1616.5
2015-Apr-23 11:33N 59°01' E 010°18'7 6.7
2015-Apr-23 10:33N 59°08' E 010°14'7 6.6
2015-Apr-23 09:33N 59°01' E 010°19'1515.0
2015-Apr-23 08:34N 59°02' E 010°47'1313.0
2015-Apr-23 07:33N 58°56' E 011°10'8 7.5
2015-Apr-23 06:34N 58°60' E 010°58'1616.1
2015-Apr-23 05:33N 59°01' E 010°26'10 9.5
2015-Apr-23 04:33N 59°08' E 010°14'1 1.4
2015-Apr-23 03:34N 59°06' E 010°14'0 0.0
2015-Apr-23 02:33N 59°06' E 010°14'0 0.0
2015-Apr-23 01:33N 59°06' E 010°14'0 0.0
2015-Apr-23 00:31N 59°06' E 010°14'0 0.0
2015-Apr-22 23:32N 59°06' E 010°14'0 0.0
2015-Apr-22 22:32N 59°06' E 010°14'0 0.0
2015-Apr-22 21:24N 59°06' E 010°14'0 0.0
2015-Apr-22 20:31N 59°06' E 010°14'0 0.0
2015-Apr-22 19:31N 59°06' E 010°14'0 0.0
2015-Apr-22 18:32N 59°06' E 010°14'0 0.0
2015-Apr-22 17:33N 59°06' E 010°14'1 1.4
2015-Apr-22 16:33N 59°08' E 010°14'1010.4
2015-Apr-22 15:33N 59°01' E 010°29'1413.8
2015-Apr-22 14:33N 59°00' E 010°55'9 8.8
2015-Apr-22 13:33N 58°56' E 011°10'1211.7
2015-Apr-22 12:34N 59°01' E 010°50'1616.4
2015-Apr-22 11:34N 59°01' E 010°18'7 6.7
2015-Apr-22 10:33N 59°08' E 010°14'7 6.9
2015-Apr-22 09:33N 59°01' E 010°20'1514.9
2015-Apr-22 08:33N 59°01' E 010°48'1212.4
2015-Apr-22 07:33N 58°56' E 011°10'8 8.1
2015-Apr-22 06:33N 59°00' E 010°57'1616.4
2015-Apr-22 05:33N 59°01' E 010°25'9 9.0
2015-Apr-22 04:34N 59°08' E 010°14'1 1.4
2015-Apr-22 03:33N 59°06' E 010°14'0 0.0
2015-Apr-22 02:31N 59°06' E 010°14'0 0.0
2015-Apr-22 01:29N 59°06' E 010°14'0 0.0
2015-Apr-22 00:32N 59°06' E 010°14'0 0.0
2015-Apr-21 23:33N 59°06' E 010°14'0 0.0
2015-Apr-21 22:31N 59°06' E 010°14'0 0.0
2015-Apr-21 21:31N 59°06' E 010°14'0 0.0
2015-Apr-21 20:32N 59°06' E 010°14'0 0.0
2015-Apr-21 19:33N 59°06' E 010°14'0 0.0
2015-Apr-21 18:33N 59°06' E 010°14'0 0.0
2015-Apr-21 17:31N 59°06' E 010°14'1 1.5
2015-Apr-21 16:33N 59°08' E 010°14'9 9.0
2015-Apr-21 15:33N 59°01' E 010°26'1515.3
2015-Apr-21 14:33N 59°01' E 010°55'9 9.0
2015-Apr-21 13:33N 58°56' E 011°10'1211.6
2015-Apr-21 12:34N 59°01' E 010°50'1616.4
2015-Apr-21 11:33N 59°01' E 010°18'7 6.8
2015-Apr-21 10:33N 59°08' E 010°14'7 6.8
2015-Apr-21 09:33N 59°01' E 010°19'1515.3
2015-Apr-21 08:33N 59°01' E 010°49'1212.2
2015-Apr-21 07:33N 58°56' E 011°10'8 8.3
2015-Apr-21 06:33N 59°00' E 010°56'1616.2
2015-Apr-21 05:34N 59°01' E 010°25'9 9.0
2015-Apr-21 04:33N 59°08' E 010°14'1 1.4
2015-Apr-21 03:33N 59°06' E 010°14'0 0.0
2015-Apr-21 02:32N 59°06' E 010°14'0 0.0
2015-Apr-21 01:30N 59°06' E 010°14'0 0.0
2015-Apr-21 00:33N 59°06' E 010°14'0 0.0
2015-Apr-20 23:31N 59°06' E 010°14'0 0.0
2015-Apr-20 22:32N 59°06' E 010°14'0 0.0
2015-Apr-20 21:33N 59°06' E 010°14'0 0.0
2015-Apr-20 20:30N 59°06' E 010°14'0 0.0
2015-Apr-20 19:31N 59°06' E 010°14'0 0.0
2015-Apr-20 18:32N 59°06' E 010°14'0 0.0
2015-Apr-20 17:33N 59°06' E 010°14'1 1.4
2015-Apr-20 16:33N 59°08' E 010°14'1010.0
2015-Apr-20 15:33N 59°01' E 010°28'1414.3
2015-Apr-20 14:33N 59°00' E 010°56'9 8.6
2015-Apr-20 13:33N 58°56' E 011°10'1212.5
2015-Apr-20 12:34N 59°01' E 010°49'1716.6
2015-Apr-20 11:33N 59°02' E 010°16'6 6.0
2015-Apr-20 10:33N 59°08' E 010°14'7 6.9
2015-Apr-20 09:33N 59°01' E 010°20'1515.2
2015-Apr-20 08:33N 59°02' E 010°49'1212.2
2015-Apr-20 07:33N 58°56' E 011°10'8 8.2
2015-Apr-20 06:33N 59°00' E 010°56'1616.4
2015-Apr-20 05:33N 59°01' E 010°25'9 9.0
2015-Apr-20 04:33N 59°08' E 010°14'1 1.4
2015-Apr-20 03:33N 59°06' E 010°14'0 0.0
2015-Apr-20 02:33N 59°06' E 010°14'0 0.0
2015-Apr-20 01:30N 59°06' E 010°14'0 0.0
2015-Apr-20 00:28N 59°06' E 010°14'0 0.0
2015-Apr-19 23:32N 59°06' E 010°14'0 0.0
2015-Apr-19 22:32N 59°06' E 010°14'0 0.0
2015-Apr-19 21:33N 59°06' E 010°14'0 0.0
2015-Apr-19 20:31N 59°06' E 010°14'0 0.0
2015-Apr-19 19:31N 59°06' E 010°14'0 0.0
2015-Apr-19 17:24N 59°06' E 010°14'9 4.6
2015-Apr-19 15:32N 59°01' E 010°27'1616.1
2015-Apr-19 14:34N 58°60' E 010°57'8 6.5
2015-Apr-19 13:23N 58°56' E 011°10'1315.1
2015-Apr-19 12:33N 59°02' E 010°48'11 3.2
2015-Apr-19 09:16N 59°01' E 010°28'1115.0
2015-Apr-19 08:34N 59°01' E 010°48'13 9.9
2015-Apr-19 07:17N 58°56' E 011°10'1213.8
2015-Apr-19 06:24N 59°01' E 010°49'19 1.3
2015-Apr-18 16:12N 59°06' E 010°14'1012.8
2015-Apr-18 15:27N 59°01' E 010°29'1415.4
2015-Apr-18 14:34N 59°00' E 010°56'9 8.1
2015-Apr-18 13:29N 58°56' E 011°10'1212.8
2015-Apr-18 12:34N 59°01' E 010°50'10 3.0
2015-Apr-18 09:11N 59°01' E 010°30'1015.4
2015-Apr-18 08:33N 59°02' E 010°48'13 9.8
2015-Apr-18 07:17N 58°56' E 011°10'1112.4
2015-Apr-18 06:26N 59°01' E 010°52'11 0.7
2015-Apr-17 15:24N 59°01' E 010°31'1416.1
2015-Apr-17 14:33N 58°60' E 010°58'5 3.4
2015-Apr-17 13:08N 58°57' E 011°04'1016.6
2015-Apr-17 12:33N 59°02' E 010°48'11 3.2
2015-Apr-17 09:15N 59°01' E 010°28'1115.7
2015-Apr-17 08:33N 59°01' E 010°49'1 0.3
2015-Apr-17 06:21N 59°01' E 010°50'  

Dump ship's entire track history